sensor_id;sensor_type;location;lat;lon;timestamp;P1;durP1;ratioP1;P2;durP2;ratioP2
50102;SDS011;35993;52.604;10.078;2023-01-04T00:01:48;5.80;;;2.42;;
50102;SDS011;35993;52.604;10.078;2023-01-04T00:04:14;6.60;;;2.47;;
50102;SDS011;35993;52.604;10.078;2023-01-04T00:06:39;5.97;;;2.40;;
50102;SDS011;35993;52.604;10.078;2023-01-04T00:09:05;3.67;;;2.25;;
50102;SDS011;35993;52.604;10.078;2023-01-04T00:11:31;7.57;;;2.40;;
50102;SDS011;35993;52.604;10.078;2023-01-04T00:13:58;4.30;;;2.08;;
50102;SDS011;35993;52.604;10.078;2023-01-04T00:16:24;4.72;;;2.30;;
50102;SDS011;35993;52.604;10.078;2023-01-04T00:18:52;5.18;;;2.17;;
50102;SDS011;35993;52.604;10.078;2023-01-04T00:21:25;5.60;;;2.30;;
50102;SDS011;35993;52.604;10.078;2023-01-04T00:23:54;8.02;;;2.22;;
50102;SDS011;35993;52.604;10.078;2023-01-04T00:26:22;9.60;;;2.50;;
50102;SDS011;35993;52.604;10.078;2023-01-04T00:28:59;4.45;;;2.13;;
50102;SDS011;35993;52.604;10.078;2023-01-04T00:31:26;4.95;;;2.05;;
50102;SDS011;35993;52.604;10.078;2023-01-04T00:33:57;3.55;;;2.00;;
50102;SDS011;35993;52.604;10.078;2023-01-04T00:36:24;4.15;;;1.88;;
50102;SDS011;35993;52.604;10.078;2023-01-04T00:38:51;4.35;;;2.00;;
50102;SDS011;35993;52.604;10.078;2023-01-04T00:41:38;4.05;;;2.08;;
50102;SDS011;35993;52.604;10.078;2023-01-04T00:44:06;4.90;;;2.05;;
50102;SDS011;35993;52.604;10.078;2023-01-04T00:46:33;6.28;;;2.22;;
50102;SDS011;35993;52.604;10.078;2023-01-04T00:48:59;6.65;;;2.35;;
50102;SDS011;35993;52.604;10.078;2023-01-04T00:51:25;4.65;;;2.00;;
50102;SDS011;35993;52.604;10.078;2023-01-04T00:53:51;5.15;;;1.90;;
50102;SDS011;35993;52.604;10.078;2023-01-04T00:56:17;7.40;;;2.10;;
50102;SDS011;35993;52.604;10.078;2023-01-04T00:58:43;8.25;;;2.20;;
50102;SDS011;35993;52.604;10.078;2023-01-04T01:01:09;5.15;;;2.00;;
50102;SDS011;35993;52.604;10.078;2023-01-04T01:03:35;7.05;;;2.15;;
50102;SDS011;35993;52.604;10.078;2023-01-04T01:06:01;6.75;;;2.58;;
50102;SDS011;35993;52.604;10.078;2023-01-04T01:08:27;5.18;;;1.88;;
50102;SDS011;35993;52.604;10.078;2023-01-04T01:10:53;5.20;;;2.20;;
50102;SDS011;35993;52.604;10.078;2023-01-04T01:13:20;4.38;;;2.00;;
50102;SDS011;35993;52.604;10.078;2023-01-04T01:15:46;4.53;;;1.80;;
50102;SDS011;35993;52.604;10.078;2023-01-04T01:18:13;6.47;;;2.47;;
50102;SDS011;35993;52.604;10.078;2023-01-04T01:20:39;3.25;;;1.95;;
50102;SDS011;35993;52.604;10.078;2023-01-04T01:23:06;6.35;;;2.10;;
50102;SDS011;35993;52.604;10.078;2023-01-04T01:25:32;4.45;;;1.83;;
50102;SDS011;35993;52.604;10.078;2023-01-04T01:27:58;4.82;;;2.33;;
50102;SDS011;35993;52.604;10.078;2023-01-04T01:30:24;7.68;;;2.50;;
50102;SDS011;35993;52.604;10.078;2023-01-04T01:32:49;4.40;;;1.98;;
50102;SDS011;35993;52.604;10.078;2023-01-04T01:35:14;6.03;;;2.00;;
50102;SDS011;35993;52.604;10.078;2023-01-04T01:37:40;6.30;;;2.65;;
50102;SDS011;35993;52.604;10.078;2023-01-04T01:40:06;4.05;;;1.70;;
50102;SDS011;35993;52.604;10.078;2023-01-04T01:42:32;5.72;;;2.13;;
50102;SDS011;35993;52.604;10.078;2023-01-04T01:45:02;4.93;;;2.13;;
50102;SDS011;35993;52.604;10.078;2023-01-04T01:47:44;4.53;;;2.00;;
50102;SDS011;35993;52.604;10.078;2023-01-04T01:50:16;4.10;;;1.98;;
50102;SDS011;35993;52.604;10.078;2023-01-04T01:52:46;3.90;;;1.85;;
50102;SDS011;35993;52.604;10.078;2023-01-04T01:55:13;2.95;;;1.70;;
50102;SDS011;35993;52.604;10.078;2023-01-04T01:57:41;5.60;;;2.20;;
50102;SDS011;35993;52.604;10.078;2023-01-04T02:00:09;3.28;;;1.92;;
50102;SDS011;35993;52.604;10.078;2023-01-04T02:05:27;6.93;;;2.15;;
50102;SDS011;35993;52.604;10.078;2023-01-04T02:07:54;5.05;;;2.08;;
50102;SDS011;35993;52.604;10.078;2023-01-04T02:10:21;8.10;;;2.30;;
50102;SDS011;35993;52.604;10.078;2023-01-04T02:12:48;4.80;;;1.75;;
50102;SDS011;35993;52.604;10.078;2023-01-04T02:15:16;4.78;;;2.00;;
50102;SDS011;35993;52.604;10.078;2023-01-04T02:34:43;4.22;;;2.17;;
50102;SDS011;35993;52.604;10.078;2023-01-04T02:40:20;4.63;;;2.10;;
50102;SDS011;35993;52.604;10.078;2023-01-04T02:42:57;5.20;;;2.10;;
50102;SDS011;35993;52.604;10.078;2023-01-04T02:46:35;7.07;;;2.40;;
50102;SDS011;35993;52.604;10.078;2023-01-04T02:49:07;7.85;;;2.40;;
50102;SDS011;35993;52.604;10.078;2023-01-04T02:51:51;7.50;;;1.85;;
50102;SDS011;35993;52.604;10.078;2023-01-04T02:54:19;5.20;;;2.00;;
50102;SDS011;35993;52.604;10.078;2023-01-04T03:08:57;3.70;;;2.10;;
50102;SDS011;35993;52.604;10.078;2023-01-04T03:11:32;6.20;;;2.10;;
50102;SDS011;35993;52.604;10.078;2023-01-04T03:14:34;3.47;;;1.80;;
50102;SDS011;35993;52.604;10.078;2023-01-04T03:17:06;5.50;;;1.80;;
50102;SDS011;35993;52.604;10.078;2023-01-04T03:19:37;5.00;;;2.17;;
50102;SDS011;35993;52.604;10.078;2023-01-04T03:22:17;2.95;;;1.80;;
50102;SDS011;35993;52.604;10.078;2023-01-04T03:25:24;3.85;;;1.90;;
50102;SDS011;35993;52.604;10.078;2023-01-04T03:28:19;5.50;;;1.80;;
50102;SDS011;35993;52.604;10.078;2023-01-04T03:31:16;6.25;;;2.25;;
50102;SDS011;35993;52.604;10.078;2023-01-04T03:34:07;4.45;;;2.08;;
50102;SDS011;35993;52.604;10.078;2023-01-04T03:36:57;6.20;;;2.17;;
50102;SDS011;35993;52.604;10.078;2023-01-04T03:39:34;3.53;;;1.70;;
50102;SDS011;35993;52.604;10.078;2023-01-04T03:42:41;3.75;;;1.80;;
50102;SDS011;35993;52.604;10.078;2023-01-04T03:45:39;5.18;;;2.00;;
50102;SDS011;35993;52.604;10.078;2023-01-04T03:48:32;5.65;;;1.88;;
50102;SDS011;35993;52.604;10.078;2023-01-04T03:54:24;5.85;;;1.83;;
50102;SDS011;35993;52.604;10.078;2023-01-04T03:56:30;5.70;;;1.80;;
50102;SDS011;35993;52.604;10.078;2023-01-04T03:58:57;6.05;;;1.83;;
50102;SDS011;35993;52.604;10.078;2023-01-04T04:01:24;5.40;;;1.75;;
50102;SDS011;35993;52.604;10.078;2023-01-04T04:03:51;3.92;;;1.77;;
50102;SDS011;35993;52.604;10.078;2023-01-04T04:06:36;3.80;;;1.90;;
50102;SDS011;35993;52.604;10.078;2023-01-04T04:09:20;6.00;;;2.45;;
50102;SDS011;35993;52.604;10.078;2023-01-04T04:11:46;4.35;;;1.85;;
50102;SDS011;35993;52.604;10.078;2023-01-04T04:14:13;6.10;;;1.88;;
50102;SDS011;35993;52.604;10.078;2023-01-04T04:16:39;5.38;;;2.33;;
50102;SDS011;35993;52.604;10.078;2023-01-04T04:19:05;6.20;;;1.90;;
50102;SDS011;35993;52.604;10.078;2023-01-04T04:21:31;4.57;;;1.83;;
50102;SDS011;35993;52.604;10.078;2023-01-04T04:23:56;5.22;;;2.10;;
50102;SDS011;35993;52.604;10.078;2023-01-04T04:26:22;3.60;;;1.88;;
50102;SDS011;35993;52.604;10.078;2023-01-04T04:28:48;6.53;;;1.95;;
50102;SDS011;35993;52.604;10.078;2023-01-04T04:31:14;5.03;;;1.90;;
50102;SDS011;35993;52.604;10.078;2023-01-04T04:33:40;5.15;;;2.03;;
50102;SDS011;35993;52.604;10.078;2023-01-04T04:36:06;6.18;;;2.30;;
50102;SDS011;35993;52.604;10.078;2023-01-04T04:38:33;5.53;;;2.08;;
50102;SDS011;35993;52.604;10.078;2023-01-04T04:41:04;6.47;;;2.10;;
50102;SDS011;35993;52.604;10.078;2023-01-04T04:43:49;6.50;;;2.20;;
50102;SDS011;35993;52.604;10.078;2023-01-04T04:46:15;5.70;;;2.13;;
50102;SDS011;35993;52.604;10.078;2023-01-04T04:48:41;4.60;;;1.75;;
50102;SDS011;35993;52.604;10.078;2023-01-04T04:51:06;5.25;;;2.00;;
50102;SDS011;35993;52.604;10.078;2023-01-04T04:53:32;4.60;;;2.13;;
50102;SDS011;35993;52.604;10.078;2023-01-04T04:55:58;3.65;;;1.98;;
50102;SDS011;35993;52.604;10.078;2023-01-04T04:58:24;5.95;;;2.45;;
50102;SDS011;35993;52.604;10.078;2023-01-04T05:00:49;5.13;;;2.13;;
50102;SDS011;35993;52.604;10.078;2023-01-04T05:03:15;3.92;;;1.77;;
50102;SDS011;35993;52.604;10.078;2023-01-04T05:05:41;5.20;;;2.13;;
50102;SDS011;35993;52.604;10.078;2023-01-04T05:08:07;4.78;;;2.17;;
50102;SDS011;35993;52.604;10.078;2023-01-04T05:10:32;4.75;;;2.20;;
50102;SDS011;35993;52.604;10.078;2023-01-04T05:12:58;4.13;;;2.10;;
50102;SDS011;35993;52.604;10.078;2023-01-04T05:15:28;6.07;;;2.10;;
50102;SDS011;35993;52.604;10.078;2023-01-04T05:17:56;3.75;;;1.67;;
50102;SDS011;35993;52.604;10.078;2023-01-04T05:20:22;4.15;;;2.10;;
50102;SDS011;35993;52.604;10.078;2023-01-04T05:22:48;7.70;;;2.15;;
50102;SDS011;35993;52.604;10.078;2023-01-04T05:25:13;6.25;;;1.90;;
50102;SDS011;35993;52.604;10.078;2023-01-04T05:27:39;5.55;;;2.00;;
50102;SDS011;35993;52.604;10.078;2023-01-04T05:30:05;6.05;;;2.10;;
50102;SDS011;35993;52.604;10.078;2023-01-04T05:32:49;5.90;;;1.90;;
50102;SDS011;35993;52.604;10.078;2023-01-04T05:35:15;6.90;;;2.03;;
50102;SDS011;35993;52.604;10.078;2023-01-04T05:37:41;6.78;;;2.50;;
50102;SDS011;35993;52.604;10.078;2023-01-04T05:40:08;4.32;;;1.85;;
50102;SDS011;35993;52.604;10.078;2023-01-04T05:42:33;5.43;;;1.63;;
50102;SDS011;35993;52.604;10.078;2023-01-04T05:44:59;3.72;;;1.92;;
50102;SDS011;35993;52.604;10.078;2023-01-04T05:47:26;4.03;;;2.00;;
50102;SDS011;35993;52.604;10.078;2023-01-04T05:49:53;5.60;;;1.90;;
50102;SDS011;35993;52.604;10.078;2023-01-04T05:52:18;4.45;;;1.85;;
50102;SDS011;35993;52.604;10.078;2023-01-04T05:54:44;4.80;;;2.13;;
50102;SDS011;35993;52.604;10.078;2023-01-04T05:57:10;3.70;;;1.70;;
50102;SDS011;35993;52.604;10.078;2023-01-04T05:59:37;3.90;;;1.60;;
50102;SDS011;35993;52.604;10.078;2023-01-04T06:02:03;6.90;;;1.90;;
50102;SDS011;35993;52.604;10.078;2023-01-04T06:04:30;6.07;;;2.10;;
50102;SDS011;35993;52.604;10.078;2023-01-04T06:06:56;4.85;;;1.80;;
50102;SDS011;35993;52.604;10.078;2023-01-04T06:09:21;3.17;;;1.77;;
50102;SDS011;35993;52.604;10.078;2023-01-04T06:11:49;3.55;;;1.70;;
50102;SDS011;35993;52.604;10.078;2023-01-04T06:14:15;5.07;;;2.08;;
50102;SDS011;35993;52.604;10.078;2023-01-04T06:16:40;5.35;;;1.98;;
50102;SDS011;35993;52.604;10.078;2023-01-04T06:19:06;3.75;;;2.10;;
50102;SDS011;35993;52.604;10.078;2023-01-04T06:21:32;4.10;;;1.80;;
50102;SDS011;35993;52.604;10.078;2023-01-04T06:23:58;3.53;;;1.70;;
50102;SDS011;35993;52.604;10.078;2023-01-04T06:26:23;2.85;;;1.65;;
50102;SDS011;35993;52.604;10.078;2023-01-04T06:28:49;5.00;;;1.90;;
50102;SDS011;35993;52.604;10.078;2023-01-04T06:31:15;2.08;;;1.50;;
50102;SDS011;35993;52.604;10.078;2023-01-04T06:33:40;2.75;;;1.70;;
50102;SDS011;35993;52.604;10.078;2023-01-04T06:36:06;6.53;;;1.98;;
50102;SDS011;35993;52.604;10.078;2023-01-04T06:38:32;3.47;;;1.67;;
50102;SDS011;35993;52.604;10.078;2023-01-04T06:40:58;5.00;;;1.90;;
50102;SDS011;35993;52.604;10.078;2023-01-04T06:43:24;4.13;;;1.80;;
50102;SDS011;35993;52.604;10.078;2023-01-04T06:45:50;2.72;;;1.65;;
50102;SDS011;35993;52.604;10.078;2023-01-04T06:48:16;4.13;;;1.60;;
50102;SDS011;35993;52.604;10.078;2023-01-04T06:50:41;3.10;;;1.65;;
50102;SDS011;35993;52.604;10.078;2023-01-04T06:53:07;3.47;;;1.50;;
50102;SDS011;35993;52.604;10.078;2023-01-04T06:55:33;3.78;;;1.52;;
50102;SDS011;35993;52.604;10.078;2023-01-04T06:57:58;3.40;;;1.90;;
50102;SDS011;35993;52.604;10.078;2023-01-04T07:00:24;4.43;;;1.67;;
50102;SDS011;35993;52.604;10.078;2023-01-04T07:02:51;3.83;;;1.60;;
50102;SDS011;35993;52.604;10.078;2023-01-04T07:05:16;3.35;;;1.63;;
50102;SDS011;35993;52.604;10.078;2023-01-04T07:07:42;3.42;;;1.73;;
50102;SDS011;35993;52.604;10.078;2023-01-04T07:10:08;4.18;;;1.60;;
50102;SDS011;35993;52.604;10.078;2023-01-04T07:12:34;2.90;;;1.70;;
50102;SDS011;35993;52.604;10.078;2023-01-04T07:15:01;4.93;;;1.50;;
50102;SDS011;35993;52.604;10.078;2023-01-04T07:17:26;4.85;;;1.60;;
50102;SDS011;35993;52.604;10.078;2023-01-04T07:19:52;2.20;;;1.40;;
50102;SDS011;35993;52.604;10.078;2023-01-04T07:22:18;2.90;;;1.58;;
50102;SDS011;35993;52.604;10.078;2023-01-04T07:24:44;3.75;;;1.70;;
50102;SDS011;35993;52.604;10.078;2023-01-04T07:27:09;5.05;;;1.40;;
50102;SDS011;35993;52.604;10.078;2023-01-04T07:29:35;3.60;;;1.45;;
50102;SDS011;35993;52.604;10.078;2023-01-04T07:32:01;3.20;;;1.30;;
50102;SDS011;35993;52.604;10.078;2023-01-04T07:34:28;2.90;;;1.42;;
50102;SDS011;35993;52.604;10.078;2023-01-04T07:36:53;3.83;;;1.40;;
50102;SDS011;35993;52.604;10.078;2023-01-04T07:39:20;4.00;;;1.60;;
50102;SDS011;35993;52.604;10.078;2023-01-04T07:41:46;2.92;;;1.50;;
50102;SDS011;35993;52.604;10.078;2023-01-04T07:44:16;2.50;;;1.42;;
50102;SDS011;35993;52.604;10.078;2023-01-04T07:46:42;3.78;;;1.40;;
50102;SDS011;35993;52.604;10.078;2023-01-04T07:49:10;2.17;;;1.50;;
50102;SDS011;35993;52.604;10.078;2023-01-04T07:51:37;3.35;;;1.38;;
50102;SDS011;35993;52.604;10.078;2023-01-04T07:54:02;2.55;;;1.50;;
50102;SDS011;35993;52.604;10.078;2023-01-04T07:56:28;4.20;;;1.15;;
50102;SDS011;35993;52.604;10.078;2023-01-04T07:58:54;2.28;;;1.48;;
50102;SDS011;35993;52.604;10.078;2023-01-04T08:01:22;2.17;;;1.33;;
50102;SDS011;35993;52.604;10.078;2023-01-04T08:03:49;5.25;;;1.42;;
50102;SDS011;35993;52.604;10.078;2023-01-04T08:06:15;2.45;;;1.40;;
50102;SDS011;35993;52.604;10.078;2023-01-04T08:08:42;3.58;;;1.75;;
50102;SDS011;35993;52.604;10.078;2023-01-04T08:11:10;3.88;;;1.83;;
50102;SDS011;35993;52.604;10.078;2023-01-04T08:13:38;2.42;;;1.40;;
50102;SDS011;35993;52.604;10.078;2023-01-04T08:16:05;3.42;;;1.30;;
50102;SDS011;35993;52.604;10.078;2023-01-04T08:18:31;1.98;;;1.13;;
50102;SDS011;35993;52.604;10.078;2023-01-04T08:21:01;2.90;;;1.50;;
50102;SDS011;35993;52.604;10.078;2023-01-04T08:23:30;2.15;;;1.33;;
50102;SDS011;35993;52.604;10.078;2023-01-04T08:26:03;3.28;;;1.60;;
50102;SDS011;35993;52.604;10.078;2023-01-04T08:28:31;3.58;;;1.70;;
50102;SDS011;35993;52.604;10.078;2023-01-04T08:30:57;2.63;;;1.52;;
50102;SDS011;35993;52.604;10.078;2023-01-04T08:33:23;2.65;;;1.38;;
50102;SDS011;35993;52.604;10.078;2023-01-04T08:35:49;2.58;;;1.00;;
50102;SDS011;35993;52.604;10.078;2023-01-04T08:38:15;2.25;;;1.17;;
50102;SDS011;35993;52.604;10.078;2023-01-04T08:40:40;1.70;;;1.30;;
50102;SDS011;35993;52.604;10.078;2023-01-04T08:43:06;1.48;;;1.20;;
50102;SDS011;35993;52.604;10.078;2023-01-04T08:45:32;2.30;;;1.10;;
50102;SDS011;35993;52.604;10.078;2023-01-04T08:47:57;1.45;;;1.05;;
50102;SDS011;35993;52.604;10.078;2023-01-04T08:50:23;2.00;;;1.38;;
50102;SDS011;35993;52.604;10.078;2023-01-04T08:52:48;2.55;;;1.17;;
50102;SDS011;35993;52.604;10.078;2023-01-04T08:55:14;3.25;;;1.30;;
50102;SDS011;35993;52.604;10.078;2023-01-04T08:57:40;4.50;;;1.30;;
50102;SDS011;35993;52.604;10.078;2023-01-04T09:00:07;2.47;;;1.50;;
50102;SDS011;35993;52.604;10.078;2023-01-04T09:02:33;2.03;;;1.20;;
50102;SDS011;35993;52.604;10.078;2023-01-04T09:04:59;2.38;;;1.10;;
50102;SDS011;35993;52.604;10.078;2023-01-04T09:07:28;2.35;;;1.30;;
50102;SDS011;35993;52.604;10.078;2023-01-04T09:09:54;1.95;;;1.30;;
50102;SDS011;35993;52.604;10.078;2023-01-04T09:12:22;1.80;;;1.17;;
50102;SDS011;35993;52.604;10.078;2023-01-04T09:14:48;2.40;;;1.45;;
50102;SDS011;35993;52.604;10.078;2023-01-04T09:17:14;1.63;;;1.23;;
50102;SDS011;35993;52.604;10.078;2023-01-04T09:19:40;2.13;;;1.35;;
50102;SDS011;35993;52.604;10.078;2023-01-04T09:22:05;3.30;;;1.20;;
50102;SDS011;35993;52.604;10.078;2023-01-04T09:24:31;2.35;;;1.20;;
50102;SDS011;35993;52.604;10.078;2023-01-04T09:26:58;1.85;;;1.17;;
50102;SDS011;35993;52.604;10.078;2023-01-04T09:29:23;2.58;;;1.20;;
50102;SDS011;35993;52.604;10.078;2023-01-04T09:31:51;3.60;;;1.40;;
50102;SDS011;35993;52.604;10.078;2023-01-04T09:34:18;1.92;;;1.20;;
50102;SDS011;35993;52.604;10.078;2023-01-04T09:36:47;3.65;;;1.40;;
50102;SDS011;35993;52.604;10.078;2023-01-04T09:39:13;5.03;;;1.45;;
50102;SDS011;35993;52.604;10.078;2023-01-04T09:41:51;2.67;;;1.40;;
50102;SDS011;35993;52.604;10.078;2023-01-04T09:44:22;3.85;;;1.25;;
50102;SDS011;35993;52.604;10.078;2023-01-04T09:47:04;2.85;;;1.33;;
50102;SDS011;35993;52.604;10.078;2023-01-04T09:49:53;3.60;;;1.50;;
50102;SDS011;35993;52.604;10.078;2023-01-04T09:52:26;3.40;;;1.45;;
50102;SDS011;35993;52.604;10.078;2023-01-04T09:55:06;2.28;;;1.25;;
50102;SDS011;35993;52.604;10.078;2023-01-04T09:57:40;2.33;;;1.40;;
50102;SDS011;35993;52.604;10.078;2023-01-04T10:00:22;2.08;;;1.40;;
50102;SDS011;35993;52.604;10.078;2023-01-04T10:05:39;4.57;;;1.83;;
50102;SDS011;35993;52.604;10.078;2023-01-04T10:08:04;1.50;;;1.13;;
50102;SDS011;35993;52.604;10.078;2023-01-04T10:13:31;2.00;;;1.20;;
50102;SDS011;35993;52.604;10.078;2023-01-04T10:19:22;1.63;;;0.98;;
50102;SDS011;35993;52.604;10.078;2023-01-04T10:21:51;1.73;;;1.00;;
50102;SDS011;35993;52.604;10.078;2023-01-04T10:24:26;2.83;;;1.20;;
50102;SDS011;35993;52.604;10.078;2023-01-04T10:27:22;2.55;;;1.00;;
50102;SDS011;35993;52.604;10.078;2023-01-04T10:33:15;0.70;;;0.70;;
50102;SDS011;35993;52.604;10.078;2023-01-04T10:35:50;1.10;;;0.90;;
50102;SDS011;35993;52.604;10.078;2023-01-04T10:38:18;1.50;;;0.95;;
50102;SDS011;35993;52.604;10.078;2023-01-04T10:40:51;1.65;;;0.90;;
50102;SDS011;35993;52.604;10.078;2023-01-04T10:46:08;1.48;;;0.98;;
50102;SDS011;35993;52.604;10.078;2023-01-04T10:51:30;1.52;;;0.93;;
50102;SDS011;35993;52.604;10.078;2023-01-04T10:54:39;2.88;;;1.23;;
50102;SDS011;35993;52.604;10.078;2023-01-04T10:57:39;3.28;;;1.00;;
50102;SDS011;35993;52.604;10.078;2023-01-04T11:00:18;3.00;;;1.15;;
50102;SDS011;35993;52.604;10.078;2023-01-04T11:05:29;2.58;;;1.00;;
50102;SDS011;35993;52.604;10.078;2023-01-04T11:08:07;2.53;;;1.02;;
50102;SDS011;35993;52.604;10.078;2023-01-04T11:13:06;1.30;;;0.90;;
50102;SDS011;35993;52.604;10.078;2023-01-04T11:15:32;2.25;;;0.90;;
50102;SDS011;35993;52.604;10.078;2023-01-04T11:17:59;3.05;;;1.15;;
50102;SDS011;35993;52.604;10.078;2023-01-04T11:20:29;2.03;;;1.20;;
50102;SDS011;35993;52.604;10.078;2023-01-04T11:23:03;1.20;;;0.85;;
50102;SDS011;35993;52.604;10.078;2023-01-04T11:25:38;1.30;;;1.00;;
50102;SDS011;35993;52.604;10.078;2023-01-04T11:28:28;1.13;;;0.60;;
50102;SDS011;35993;52.604;10.078;2023-01-04T11:33:49;1.10;;;0.82;;
50102;SDS011;35993;52.604;10.078;2023-01-04T11:39:06;1.40;;;1.10;;
50102;SDS011;35993;52.604;10.078;2023-01-04T11:42:02;1.77;;;1.17;;
50102;SDS011;35993;52.604;10.078;2023-01-04T11:44:33;1.07;;;0.77;;
50102;SDS011;35993;52.604;10.078;2023-01-04T11:47:07;1.38;;;0.77;;
50102;SDS011;35993;52.604;10.078;2023-01-04T11:49:46;1.67;;;0.93;;
50102;SDS011;35993;52.604;10.078;2023-01-04T11:52:32;1.98;;;0.82;;
50102;SDS011;35993;52.604;10.078;2023-01-04T11:58:11;0.95;;;0.60;;
50102;SDS011;35993;52.604;10.078;2023-01-04T12:00:55;0.70;;;0.70;;
50102;SDS011;35993;52.604;10.078;2023-01-04T12:03:29;0.95;;;0.60;;
50102;SDS011;35993;52.604;10.078;2023-01-04T12:05:57;2.17;;;0.70;;
50102;SDS011;35993;52.604;10.078;2023-01-04T12:08:32;0.90;;;0.60;;
50102;SDS011;35993;52.604;10.078;2023-01-04T12:11:00;1.33;;;0.80;;
50102;SDS011;35993;52.604;10.078;2023-01-04T12:13:28;1.15;;;0.70;;
50102;SDS011;35993;52.604;10.078;2023-01-04T12:18:38;0.60;;;0.40;;
50102;SDS011;35993;52.604;10.078;2023-01-04T12:21:17;0.70;;;0.60;;
50102;SDS011;35993;52.604;10.078;2023-01-04T12:23:45;1.20;;;0.70;;
50102;SDS011;35993;52.604;10.078;2023-01-04T12:26:11;1.13;;;0.77;;
50102;SDS011;35993;52.604;10.078;2023-01-04T12:28:39;0.65;;;0.60;;
50102;SDS011;35993;52.604;10.078;2023-01-04T12:36:14;4.20;;;2.30;;
50102;SDS011;35993;52.604;10.078;2023-01-04T12:41:19;1.40;;;0.95;;
50102;SDS011;35993;52.604;10.078;2023-01-04T12:43:46;1.05;;;0.85;;
50102;SDS011;35993;52.604;10.078;2023-01-04T12:49:58;3.00;;;1.70;;
50102;SDS011;35993;52.604;10.078;2023-01-04T12:54:47;0.95;;;0.70;;
50102;SDS011;35993;52.604;10.078;2023-01-04T13:04:58;1.35;;;0.65;;
50102;SDS011;35993;52.604;10.078;2023-01-04T13:07:26;1.27;;;0.65;;
50102;SDS011;35993;52.604;10.078;2023-01-04T13:09:57;2.20;;;0.88;;
50102;SDS011;35993;52.604;10.078;2023-01-04T13:18:26;1.83;;;0.88;;
50102;SDS011;35993;52.604;10.078;2023-01-04T13:20:57;0.68;;;0.60;;
50102;SDS011;35993;52.604;10.078;2023-01-04T13:23:24;4.43;;;0.80;;
50102;SDS011;35993;52.604;10.078;2023-01-04T13:25:51;2.10;;;1.00;;
50102;SDS011;35993;52.604;10.078;2023-01-04T13:28:17;1.88;;;0.88;;
50102;SDS011;35993;52.604;10.078;2023-01-04T13:30:43;2.75;;;1.05;;
50102;SDS011;35993;52.604;10.078;2023-01-04T13:35:44;3.17;;;1.70;;
50102;SDS011;35993;52.604;10.078;2023-01-04T13:38:24;1.80;;;1.10;;
50102;SDS011;35993;52.604;10.078;2023-01-04T13:40:50;7.10;;;2.22;;
50102;SDS011;35993;52.604;10.078;2023-01-04T13:46:12;0.90;;;0.85;;
50102;SDS011;35993;52.604;10.078;2023-01-04T13:48:44;1.52;;;1.30;;
50102;SDS011;35993;52.604;10.078;2023-01-04T13:51:16;5.95;;;2.92;;
50102;SDS011;35993;52.604;10.078;2023-01-04T13:53:53;1.83;;;1.38;;
50102;SDS011;35993;52.604;10.078;2023-01-04T13:56:20;3.05;;;1.17;;
50102;SDS011;35993;52.604;10.078;2023-01-04T13:58:50;1.17;;;1.00;;
50102;SDS011;35993;52.604;10.078;2023-01-04T14:06:42;1.83;;;1.38;;
50102;SDS011;35993;52.604;10.078;2023-01-04T14:17:15;1.88;;;1.45;;
50102;SDS011;35993;52.604;10.078;2023-01-04T14:19:42;1.70;;;1.50;;
50102;SDS011;35993;52.604;10.078;2023-01-04T14:24:58;3.17;;;1.55;;
50102;SDS011;35993;52.604;10.078;2023-01-04T14:33:43;3.22;;;1.45;;
50102;SDS011;35993;52.604;10.078;2023-01-04T14:35:37;2.17;;;1.50;;
50102;SDS011;35993;52.604;10.078;2023-01-04T14:38:04;2.45;;;1.65;;
50102;SDS011;35993;52.604;10.078;2023-01-04T14:40:34;3.50;;;1.60;;
50102;SDS011;35993;52.604;10.078;2023-01-04T14:43:02;2.22;;;1.50;;
50102;SDS011;35993;52.604;10.078;2023-01-04T14:45:48;2.15;;;1.45;;
50102;SDS011;35993;52.604;10.078;2023-01-04T14:48:13;1.98;;;1.40;;
50102;SDS011;35993;52.604;10.078;2023-01-04T14:50:39;2.05;;;1.45;;
50102;SDS011;35993;52.604;10.078;2023-01-04T14:53:04;2.50;;;1.60;;
50102;SDS011;35993;52.604;10.078;2023-01-04T14:55:30;2.22;;;1.38;;
50102;SDS011;35993;52.604;10.078;2023-01-04T14:57:55;2.15;;;1.48;;
50102;SDS011;35993;52.604;10.078;2023-01-04T15:00:21;1.58;;;1.38;;
50102;SDS011;35993;52.604;10.078;2023-01-04T15:02:47;2.47;;;1.35;;
50102;SDS011;35993;52.604;10.078;2023-01-04T15:05:14;1.83;;;1.25;;
50102;SDS011;35993;52.604;10.078;2023-01-04T15:07:40;1.77;;;1.38;;
50102;SDS011;35993;52.604;10.078;2023-01-04T15:10:07;1.92;;;1.58;;
50102;SDS011;35993;52.604;10.078;2023-01-04T15:12:43;2.33;;;1.50;;
50102;SDS011;35993;52.604;10.078;2023-01-04T15:15:10;2.80;;;1.50;;
50102;SDS011;35993;52.604;10.078;2023-01-04T15:17:36;2.45;;;1.80;;
50102;SDS011;35993;52.604;10.078;2023-01-04T15:20:02;2.30;;;1.70;;
50102;SDS011;35993;52.604;10.078;2023-01-04T15:22:29;3.08;;;1.83;;
50102;SDS011;35993;52.604;10.078;2023-01-04T15:24:54;3.30;;;1.92;;
50102;SDS011;35993;52.604;10.078;2023-01-04T15:27:20;3.55;;;1.77;;
50102;SDS011;35993;52.604;10.078;2023-01-04T15:29:45;3.50;;;1.40;;
50102;SDS011;35993;52.604;10.078;2023-01-04T15:32:11;3.15;;;1.60;;
50102;SDS011;35993;52.604;10.078;2023-01-04T15:34:37;3.33;;;1.70;;
50102;SDS011;35993;52.604;10.078;2023-01-04T15:37:02;3.03;;;1.60;;
50102;SDS011;35993;52.604;10.078;2023-01-04T15:39:28;3.42;;;1.60;;
50102;SDS011;35993;52.604;10.078;2023-01-04T15:41:53;2.78;;;1.80;;
50102;SDS011;35993;52.604;10.078;2023-01-04T15:44:37;3.97;;;1.70;;
50102;SDS011;35993;52.604;10.078;2023-01-04T15:47:03;1.92;;;1.30;;
50102;SDS011;35993;52.604;10.078;2023-01-04T15:49:28;4.00;;;1.63;;
50102;SDS011;35993;52.604;10.078;2023-01-04T15:51:55;4.10;;;1.92;;
50102;SDS011;35993;52.604;10.078;2023-01-04T15:54:23;5.70;;;1.80;;
50102;SDS011;35993;52.604;10.078;2023-01-04T15:56:49;3.20;;;1.48;;
50102;SDS011;35993;52.604;10.078;2023-01-04T15:59:15;5.53;;;1.85;;
50102;SDS011;35993;52.604;10.078;2023-01-04T16:01:41;4.00;;;1.60;;
50102;SDS011;35993;52.604;10.078;2023-01-04T16:04:07;3.25;;;1.52;;
50102;SDS011;35993;52.604;10.078;2023-01-04T16:06:33;3.28;;;1.50;;
50102;SDS011;35993;52.604;10.078;2023-01-04T16:08:59;4.50;;;1.50;;
50102;SDS011;35993;52.604;10.078;2023-01-04T16:11:26;3.10;;;1.63;;
50102;SDS011;35993;52.604;10.078;2023-01-04T16:13:51;4.20;;;1.30;;
50102;SDS011;35993;52.604;10.078;2023-01-04T16:16:17;22.88;;;8.60;;
50102;SDS011;35993;52.604;10.078;2023-01-04T16:18:45;15.93;;;7.57;;
50102;SDS011;35993;52.604;10.078;2023-01-04T16:21:13;12.27;;;4.70;;
50102;SDS011;35993;52.604;10.078;2023-01-04T16:23:40;2.85;;;1.90;;
50102;SDS011;35993;52.604;10.078;2023-01-04T16:26:07;4.13;;;1.60;;
50102;SDS011;35993;52.604;10.078;2023-01-04T16:28:35;4.50;;;2.13;;
50102;SDS011;35993;52.604;10.078;2023-01-04T16:31:01;4.85;;;1.70;;
50102;SDS011;35993;52.604;10.078;2023-01-04T16:33:28;3.33;;;1.42;;
50102;SDS011;35993;52.604;10.078;2023-01-04T16:36:04;3.28;;;1.60;;
50102;SDS011;35993;52.604;10.078;2023-01-04T16:38:35;4.75;;;1.52;;
50102;SDS011;35993;52.604;10.078;2023-01-04T16:41:03;7.88;;;2.10;;
50102;SDS011;35993;52.604;10.078;2023-01-04T16:43:30;6.53;;;2.50;;
50102;SDS011;35993;52.604;10.078;2023-01-04T16:48:41;7.00;;;2.00;;
50102;SDS011;35993;52.604;10.078;2023-01-04T16:51:07;5.07;;;2.33;;
50102;SDS011;35993;52.604;10.078;2023-01-04T16:53:36;7.63;;;2.33;;
50102;SDS011;35993;52.604;10.078;2023-01-04T16:56:02;6.18;;;1.92;;
50102;SDS011;35993;52.604;10.078;2023-01-04T16:58:32;7.32;;;2.30;;